Terminal Aerodrome Forecast
Issued by NWS Huntsville, AL

Home | Current Version | Previous Version | Text Only | Print | Product List | Glossary On
Versions: 1 2 3 4 5 6 7 8 9 10 11 12 13 14 15 16 17 18 19 20 21 22 23 24 25 26 27 28 29 30 31 32 33 34 35 36 37 38
806
FTUS44 KHUN 280727 AAA
TAFHSV
TAF AMD
KHSV 280727Z 2807/2906 VRB03KT 6SM BR SCT005 BKN080
      TEMPO 2807/2810 2SM BR
     FM281000 VRB02KT 2SM BR BKN005
     FM281300 28006KT P6SM SCT015 BKN030
     FM281900 31007KT P6SM BKN050=

USA.gov is the U.S. government's official web portal to all federal, state and local government web resources and services.